Terminal Aerodrome Forecast
Issued by NWS

Home | Current Version | Previous Version | Graphics & Text | Print | Product List | Glossary On
Versions: 1 2 3 4 5 6 7 8 9 10 11 12 13 14 15 16
000
FTUS43 KABR 272300
TAFATY
TAF
KATY 272332Z 2800/2824 19008KT P6SM SKC
     FM281600 19013G19KT P6SM SCT040
     FM282300 20010KT P6SM BKN035=

USA.gov is the U.S. government's official web portal to all federal, state and local government web resources and services.